x

Canaveral East - 120nm East Of Cape Canaveral (41010) Wave Buoy

10:50am - Thu 17th Apr 2014 All times are EDT. -4 hours from GMT.

  • Sig Wave height 9.5ft
  • Swell Direction
  • Peak Period 11s
  • Average Period 7s
  • Wind
    25mph, 29mph gusts
  • Sea Temp 76°f
  • Air Temp 72°f
  • Sea Pressure 1023.2mb
  • Canaveral East - 120nm East Of Cape Canaveral
  • Canaveral East - 120nm East Of Cape Canaveral

More Historic Weather Station data

Upgrade to MSW Pro to gain access to the past 30 days of data for over 8000 Wavebouys and Weather Stations around the globe.

Join Pro

Comparision Forecast

View Surf forecast
   
Thu 04/17 10:50am 9.5ft 11s 7s 25 29 mph 1023.2mb 76f 72f
10:20am  -   -   -  22 27 mph 1023.8mb 76f 71f
9:50am 10ft 8s 7s 22 27 mph 1023.5mb 76f 71f
9:20am  -   -   -  22 29 mph 1022.9mb 76f 71f
8:50am 9ft 9s 7s 22 27 mph 1022.4mb 76f 71f
8:20am  -   -   -  25 29 mph 1022.2mb 76f 70f
7:50am 9ft 9s 7s 22 29 mph 1022mb 76f 70f
7:20am  -   -   -  25 27 mph 1021.3mb 76f 70f
6:50am 10ft 9s 7s 25 27 mph 1021mb 76f 70f
6:20am  -   -   -  25 29 mph 1020.6mb 76f 69f
5:50am 10ft 12s 7s 25 29 mph 1020.3mb 76f 70f
5:20am  -   -   -  22 27 mph 1020.4mb 76f 71f
4:50am 10ft 12s 7s 20 25 mph 1020.4mb 76f 71f
4:20am  -   -   -  20 25 mph 1020.3mb 76f 71f
3:50am 10ft 11s 7s 22 27 mph 1020.2mb 76f 71f
3:20am  -   -   -  22 27 mph 1020.3mb 76f 72f
2:50am 9ft 11s 7s 22 27 mph 1020.3mb 76f 71f
2:20am  -   -   -  20 27 mph 1020.4mb 76f 71f
1:50am 8ft 11s 7s 22 25 mph 1020.4mb 76f 71f
1:20am  -   -   -  20 25 mph 1020.7mb 76f 72f
12:50am 8.5ft 11s 7s 20 27 mph 1020.8mb 76f 72f
12:20am  -   -   -  22 27 mph 1021mb 76f 72f
Wed 04/16 11:50pm 8ft 11s 6s 18 22 mph 1021mb 76f 72f
11:20pm  -   -   -  20 25 mph 1021mb 76f 72f
10:50pm 8ft 10s 6s 20 25 mph 1020.9mb 76f 72f
10:20pm  -   -   -  22 27 mph 1020.7mb 76f 72f
9:50pm 8ft 8s 6s 22 27 mph 1020.4mb 76f 72f
9:20pm  -   -   -  22 27 mph 1019.9mb 76f 72f
8:50pm 7ft 9s 6s 22 25 mph 1019.6mb 76f 72f
8:20pm  -   -   -  20 25 mph 1019.5mb 76f 72f
7:50pm 8ft 8s 6s 20 25 mph 1019.3mb 76f 72f
7:20pm  -   -   -  22 25 mph 1019.1mb 76f 71f
6:50pm 8.5ft 8s 6s 22 27 mph 1019.1mb 76f 71f
6:20pm  -   -   -  22 27 mph 1018.9mb 76f 71f
5:50pm 8.5ft 8s 6s 22 29 mph 1018.7mb 76f 71f
5:20pm  -   -   -  22 27 mph 1018.6mb 76f 71f
4:50pm 8ft 8s 6s 22 27 mph 1018.7mb 76f 71f
4:20pm  -   -   -  22 27 mph 1018.6mb 76f 71f
3:50pm 7ft 7s 5s 22 27 mph 1018.7mb 76f 70f
3:20pm  -   -   -  22 27 mph 1018.8mb 76f 71f
2:50pm 7ft 8s 6s 22 27 mph 1019.1mb 76f 71f
2:20pm  -   -   -  22 27 mph 1019.2mb 76f 71f
1:50pm 7ft 8s 5s 22 27 mph 1019.5mb 76f 71f
1:20pm  -   -   -  22 27 mph 1019.2mb 76f 70f
12:50pm 8ft 7s 6s 25 29 mph 1018.8mb 76f 70f
12:20pm  -   -   -  25 29 mph 1018.9mb 76f 70f
11:50am 8ft 8s 6s 22 27 mph 1018.9mb 76f 70f
11:20am  -   -   -  25 29 mph 1018.9mb 76f 70f
10:50am 7ft 8s 5s 25 29 mph 1018.6mb 76f 70f
10:20am  -   -   -  25 27 mph 1018.1mb 76f 70f
9:50am 7ft 7s 6s 25 29 mph 1017.3mb 76f 70f
9:20am  -   -   -  25 31 mph 1016.5mb 76f 71f
8:50am 6.5ft 7s 5s 22 27 mph 1016.5mb 76f 72f
8:20am  -   -   -  20 25 mph 1016.2mb 76f 72f
7:50am 7.5ft 7s 6s 20 25 mph 1016.2mb 76f 71f
7:20am  -   -   -  20 25 mph 1015.7mb 76f 71f
6:50am 7ft 6s 5s 22 25 mph 1015.2mb 76f 70f
6:20am  -   -   -  22 27 mph 1014.8mb 76f 70f
5:50am 6ft 5s 5s 22 27 mph 1014.4mb 76f 70f
5:20am  -   -   -  22 27 mph 1014mb 76f 70f
4:50am 5.5ft 5s 5s 25 29 mph 1013.7mb 76f 71f
4:20am  -   -   -  25 29 mph 1013.5mb 76f 71f
3:50am 5ft 8s 5s 25 29 mph 1013.3mb 76f 70f
3:20am  -   -   -  25 29 mph 1012.9mb 76f 71f
2:50am 4.5ft 8s 5s 25 29 mph 1012.5mb 76f 72f
2:20am  -   -   -  27 34 mph 1011.9mb 76f 71f
1:50am 4.5ft 8s 5s 18 29 mph 1012mb 76f 76f
1:20am  -   -   -  16 20 mph 1012.3mb 76f 76f
12:50am 4.5ft 6s 5s 18 20 mph 1012.2mb 76f 76f
12:20am  -   -   -  16 18 mph 1012.2mb 76f 77f
Tue 04/15 11:50pm 4.5ft 6s 5s 13 18 mph 1012.4mb 76f 76f
11:20pm  -   -   -  16 18 mph 1012.5mb 76f 75f
10:50pm 5ft 8s 6s 16 18 mph 1012.5mb 76f 75f
10:20pm  -   -   -  11 16 mph 1012.4mb 76f 75f
9:50pm 6ft 8s 5s 13 20 mph 1012.7mb 76f 75f
9:20pm  -   -   -  18 20 mph 1012.7mb 76f 74f
8:50pm 5ft 8s 5s 20 25 mph 1013.3mb 76f 73f
8:20pm  -   -   -  16 20 mph 1013.1mb 76f 73f
7:50pm 5ft 8s 5s 13 20 mph 1013.3mb 76f 73f
7:20pm  -   -   -  18 29 mph 1012.4mb 76f 75f
6:50pm 5ft 8s 6s 11 13 mph 1011.4mb 76f 76f
6:20pm  -   -   -  13 16 mph 1011.3mb 76f 76f
5:50pm 5ft 8s 6s 13 16 mph 1011.6mb 76f 76f
5:20pm  -   -   -  13 18 mph 1011.4mb 76f 76f
4:50pm 5ft 7s 5s 16 20 mph 1011.4mb 76f 76f
4:20pm  -   -   -  18 20 mph 1011.1mb 76f 76f
3:50pm 5ft 8s 5s 18 22 mph 1011mb 76f 76f
3:20pm  -   -   -  18 20 mph 1011.3mb 76f 76f
2:50pm 5ft 8s 5s 16 20 mph 1012.2mb 76f 76f
2:20pm  -   -   -  18 20 mph 1012.4mb 76f 76f
1:50pm 5ft 8s 5s 20 22 mph 1012.7mb 76f 76f
1:20pm  -   -   -  18 22 mph 1012.8mb 76f 76f
12:50pm 5ft 8s 6s 18 22 mph 1013.1mb 76f 76f
12:20pm  -   -   -  18 20 mph 1013.4mb 76f 76f
11:50am 5.5ft 8s 6s 18 20 mph 1013.9mb 76f 76f
11:20am  -   -   -  16 20 mph 1014.1mb 76f 76f